createdAt,value
2023-04-27T00:00:22.807Z,68.34
2023-04-27T00:05:27.605Z,67.72
2023-04-27T00:10:31.771Z,68.56
2023-04-27T00:15:34.606Z,69.15
2023-04-27T00:20:37.353Z,68.31
2023-04-27T00:25:41.591Z,68.46
2023-04-27T00:30:45.071Z,68.02
2023-04-27T00:35:47.960Z,68.22
2023-04-27T00:40:52.119Z,68.76
2023-04-27T00:45:55.944Z,68.33
2023-04-27T00:50:58.913Z,69.13
2023-04-27T00:56:03.534Z,70.07
2023-04-27T01:01:06.350Z,69.63
2023-04-27T01:06:09.239Z,70.15
2023-04-27T01:11:13.535Z,69.88
2023-04-27T01:16:18.547Z,71.12
2023-04-27T01:21:21.366Z,71.60
2023-04-27T01:26:25.539Z,70.05
2023-04-27T01:31:28.373Z,71.68
2023-04-27T01:36:31.830Z,72.48
2023-04-27T01:41:36.063Z,73.19
2023-04-27T01:46:39.760Z,72.14
2023-04-27T01:51:43.104Z,72.09
2023-04-27T01:56:47.310Z,73.39
2023-04-27T02:01:50.136Z,72.80
2023-04-27T02:06:52.963Z,73.84
2023-04-27T02:11:57.336Z,73.51
2023-04-27T02:17:01.850Z,73.28
2023-04-27T02:22:05.152Z,71.98
2023-04-27T02:27:09.377Z,70.64
2023-04-27T02:32:12.689Z,70.27
2023-04-27T02:37:15.517Z,68.32
2023-04-27T02:42:19.768Z,69.26
2023-04-27T02:47:22.508Z,66.81
2023-04-27T02:52:25.413Z,67.15
2023-04-27T02:57:30.073Z,66.73
2023-04-27T03:02:33.188Z,68.33
2023-04-27T03:07:36.120Z,67.95
2023-04-27T03:12:41.074Z,67.47
2023-04-27T03:17:43.885Z,69.48
2023-04-27T03:22:46.746Z,69.84
2023-04-27T03:27:50.916Z,73.12
2023-04-27T03:32:53.954Z,73.49
2023-04-27T03:37:56.719Z,73.47
2023-04-27T03:43:00.964Z,75.05
2023-04-27T03:48:03.861Z,75.40
2023-04-27T03:53:07.043Z,73.56
2023-04-27T03:58:12.067Z,75.15
2023-04-27T04:03:25.827Z,74.96
2023-04-27T04:08:28.827Z,74.42
2023-04-27T04:13:32.946Z,74.25
2023-04-27T04:18:36.203Z,73.88
2023-04-27T04:23:41.219Z,74.15
2023-04-27T04:28:45.858Z,74.34
2023-04-27T04:33:48.673Z,74.93
2023-04-27T04:38:53.770Z,74.89
2023-04-27T04:43:58.409Z,73.08
2023-04-27T04:49:02.400Z,72.81
2023-04-27T04:54:13.664Z,71.77
2023-04-27T04:59:17.896Z,70.35
2023-04-27T05:04:21.047Z,68.30
2023-04-27T05:09:25.430Z,69.47
2023-04-27T05:14:29.692Z,69.60
2023-04-27T05:19:32.716Z,68.42
2023-04-27T05:24:36.004Z,68.72
2023-04-27T05:29:41.658Z,68.52
2023-04-27T05:34:46.232Z,69.43
2023-04-27T05:39:50.260Z,70.45
2023-04-27T05:44:56.085Z,68.44
2023-04-27T05:49:59.187Z,68.51
2023-04-27T05:55:02.013Z,66.85
2023-04-27T06:00:11.179Z,62.20
2023-04-27T06:05:17.235Z,54.95
2023-04-27T06:10:20.036Z,53.14
2023-04-27T06:15:24.269Z,51.07
2023-04-27T06:20:27.043Z,48.51
2023-04-27T06:25:29.979Z,52.20
2023-04-27T06:30:34.616Z,46.52
2023-04-27T06:35:37.524Z,42.77
2023-04-27T06:40:40.733Z,40.64
2023-04-27T06:45:45.033Z,40.34
2023-04-27T06:50:48.514Z,37.36
2023-04-27T06:56:02.658Z,37.58
2023-04-27T07:01:10.073Z,32.55
2023-04-27T07:06:49.195Z,32.89
2023-04-27T07:11:54.434Z,36.80
2023-04-27T07:17:04.632Z,35.45
2023-04-27T07:22:08.957Z,34.75
2023-04-27T07:27:27.550Z,32.62
2023-04-27T07:32:32.854Z,31.59
2023-04-27T07:37:35.911Z,29.87
2023-04-27T07:42:39.570Z,33.56
2023-04-27T07:47:44.000Z,41.59
2023-04-27T07:52:47.302Z,45.24
2023-04-27T08:04:25.626Z,40.44
2023-04-27T08:09:29.974Z,38.12
2023-04-27T08:14:35.333Z,38.06
2023-04-27T08:19:38.236Z,40.64
2023-04-27T08:24:44.723Z,39.47
2023-04-27T08:29:48.373Z,41.72
2023-04-27T08:34:53.491Z,42.66
2023-04-27T08:39:57.844Z,42.27
2023-04-27T08:45:12.227Z,38.41
2023-04-27T08:50:15.002Z,38.90
2023-04-27T08:55:19.306Z,38.64
2023-04-27T09:00:22.747Z,39.73
2023-04-27T09:05:25.879Z,39.83
2023-04-27T09:10:30.434Z,38.65
2023-04-27T09:15:47.752Z,40.99
2023-04-27T09:20:54.428Z,41.41
2023-04-27T09:26:32.379Z,41.46
2023-04-27T09:32:06.874Z,41.34
2023-04-27T09:37:45.550Z,41.59
2023-04-27T09:42:50.434Z,38.28
2023-04-27T09:47:56.569Z,37.65
2023-04-27T09:52:59.695Z,38.92
2023-04-27T09:58:16.337Z,39.49
2023-04-27T10:03:27.669Z,38.12
2023-04-27T10:08:30.859Z,38.78
2023-04-27T10:13:35.118Z,37.39
2023-04-27T10:18:37.998Z,36.66
2023-04-27T10:23:48.732Z,37.00
2023-04-27T10:29:00.343Z,38.75
2023-04-27T10:34:10.042Z,37.69
2023-04-27T10:39:18.127Z,37.87
2023-04-27T10:45:11.076Z,37.21
2023-04-27T10:50:19.347Z,36.33
2023-04-27T11:15:04.647Z,39.39
2023-04-27T11:20:23.076Z,40.06
2023-04-27T11:25:55.361Z,41.07
2023-04-27T11:30:59.036Z,40.25
2023-04-27T11:36:07.176Z,39.43
2023-04-27T11:41:12.505Z,37.58
2023-04-27T11:46:15.495Z,38.88
2023-04-27T11:51:25.928Z,38.45
2023-04-27T11:56:37.733Z,37.10
2023-04-27T12:15:50.801Z,36.73
2023-04-27T12:20:53.720Z,37.61
2023-04-27T12:25:56.584Z,37.89
2023-04-27T12:31:06.551Z,38.93
2023-04-27T12:36:09.608Z,38.59
2023-04-27T12:41:12.554Z,38.60
2023-04-27T12:46:18.879Z,37.56
2023-04-27T12:58:00.734Z,38.46
2023-04-27T13:03:37.924Z,39.81
2023-04-27T13:08:41.970Z,41.79
2023-04-27T13:14:30.783Z,43.29
2023-04-27T13:20:00.523Z,47.56
2023-04-27T13:25:36.031Z,45.15
2023-04-27T13:36:47.777Z,42.19
2023-04-27T13:41:55.670Z,41.48
2023-04-27T13:47:06.880Z,40.52
2023-04-27T13:52:11.480Z,38.43
2023-04-27T13:57:14.433Z,40.19
2023-04-27T14:02:17.392Z,38.36
2023-04-27T14:07:21.740Z,37.10
2023-04-27T14:19:06.588Z,36.13
2023-04-27T14:31:24.248Z,35.59
2023-04-27T14:36:44.592Z,35.80
2023-04-27T14:42:25.295Z,38.54
2023-04-27T14:54:28.095Z,39.60
2023-04-27T15:00:00.824Z,38.85
2023-04-27T15:10:55.715Z,39.62
2023-04-27T15:16:36.157Z,38.72
2023-04-27T15:21:49.713Z,39.81
2023-04-27T15:27:22.092Z,40.38
2023-04-27T15:32:29.845Z,40.49
2023-04-27T15:37:37.796Z,40.70
2023-04-27T15:43:19.998Z,42.02
2023-04-27T15:48:48.940Z,42.30
2023-04-27T15:54:37.313Z,41.54
2023-04-27T15:59:44.034Z,40.59
2023-04-27T16:04:55.213Z,40.31
2023-04-27T16:11:18.502Z,42.05
2023-04-27T16:16:23.413Z,42.24
2023-04-27T16:21:28.030Z,42.49
2023-04-27T16:26:31.580Z,43.22
2023-04-27T16:31:35.732Z,42.38
2023-04-27T16:36:38.670Z,41.82
2023-04-27T16:41:41.417Z,43.48
2023-04-27T16:46:45.684Z,43.00
2023-04-27T16:51:49.062Z,44.98
2023-04-27T16:56:53.237Z,44.94
2023-04-27T17:02:09.093Z,46.05
2023-04-27T17:07:19.777Z,46.05
2023-04-27T17:12:22.606Z,45.93
2023-04-27T17:17:26.948Z,46.07
2023-04-27T17:22:54.330Z,47.05
2023-04-27T17:28:03.030Z,47.52
2023-04-27T17:33:07.261Z,48.79
2023-04-27T17:38:35.545Z,48.49
2023-04-27T17:44:34.927Z,49.35
2023-04-27T18:17:04.586Z,51.88
2023-04-27T19:13:07.153Z,57.82
2023-04-27T19:18:22.895Z,56.74
2023-04-27T19:23:32.404Z,57.13
2023-04-27T19:28:42.115Z,56.37
2023-04-27T19:51:25.438Z,55.03
2023-04-27T20:01:21.947Z,54.07
2023-04-27T20:06:24.832Z,54.88
2023-04-27T20:11:27.994Z,54.95
2023-04-27T20:16:32.240Z,55.46
2023-04-27T20:21:35.055Z,55.42
2023-04-27T20:26:37.867Z,55.13
2023-04-27T20:31:42.394Z,55.96
2023-04-27T20:36:45.463Z,56.13
2023-04-27T20:41:49.133Z,55.61
2023-04-27T20:46:53.429Z,55.38
2023-04-27T20:51:56.246Z,55.38
2023-04-27T20:57:02.103Z,55.20
2023-04-27T21:02:07.621Z,55.01
2023-04-27T21:07:10.516Z,54.37
2023-04-27T21:12:14.684Z,53.95
2023-04-27T21:17:18.744Z,53.73
2023-04-27T21:22:21.593Z,52.95
2023-04-27T21:27:33.456Z,52.48
2023-04-27T21:32:40.711Z,53.48
2023-04-27T21:37:43.631Z,52.90
2023-04-27T21:42:46.475Z,51.54
2023-04-27T21:47:50.820Z,51.58
2023-04-27T21:52:59.751Z,52.33
2023-04-27T21:58:04.625Z,51.18
2023-04-27T22:03:09.080Z,51.81
2023-04-27T22:08:12.173Z,52.76
2023-04-27T22:13:18.756Z,52.66
2023-04-27T22:18:23.811Z,52.31
2023-04-27T22:23:26.784Z,51.98
2023-04-27T22:28:29.706Z,51.44
2023-04-27T22:33:34.423Z,52.56
2023-04-27T22:38:37.224Z,52.12
2023-04-27T22:43:39.973Z,51.55
2023-04-27T22:48:45.037Z,52.01
2023-04-27T22:53:47.893Z,52.27
2023-04-27T22:58:51.640Z,53.78
2023-04-27T23:03:56.192Z,53.61
2023-04-27T23:08:59.122Z,53.24
2023-04-27T23:14:02.354Z,53.39
2023-04-27T23:19:06.493Z,53.83
2023-04-27T23:24:09.708Z,54.56
2023-04-27T23:29:12.660Z,54.41
2023-04-27T23:34:17.453Z,54.72
2023-04-27T23:39:20.603Z,54.60
2023-04-27T23:44:23.456Z,55.52
2023-04-27T23:49:27.633Z,55.89
2023-04-27T23:54:31.477Z,57.05
2023-04-27T23:59:35.322Z,57.17
